Leicester, New York
Current Conditions -  °F | °C
As of 11:27 AM on Monday 26 Jan 2015 (Local Time) from KDSV Reporting Station
Light Snow Light Snow  
Wind Chill:   Ceiling: 4700
Heat Index: 14°   Visibility: 3mi
Dew Point:   Wind: 6mph
Humidity: 80%   Direction: 330°NNW
Pressure: 29.94"   Gusts: NA
Location:  42.77°N, 77.9°W
Report Text: KDSV 261627Z AUTO 33005KT 3SM -SN SCT029 SCT036 OVC047 M10/M13 A2994 RMK AO2 P0000 T11001128
Loading
Personal Weather Stations






























Interactive Weather Map New forecast layout! Learn more

10-Day Weather Forecast

Advertisements
Track Severe Weather on mobile